Hlavní strana
METAR-TAF:

METAR-TAF

Letiště :

Bou Saâda, Alžírsko

zeměpisná šířka: 35-20N, zeměpisná délka: 004-12E, výška: 461 m

Aktuální stav počasí

Zpráva byla vytvořena před 4 hodinami a 4 minutami, v 17:00 UTC
Východojihovýchodní vítr 12 kt
Teplota 17°C
Vlhkost vzduchu 32%
Tlak 1021 hPa
Viditelnost 10 km a více
Žádná oblačnost pod 1500 m, nevyskytují se cumulonimby.

METAR: DAAD 281700Z 11012KT CAVOK 17/00 Q1021

Čas: 22:04 (21:04 UTC)

Předpověď počasí

Zpráva byla vytvořena před 4 hodinami a 4 minutami, v 17:00 UTC
Předpověď platná od 28 v 18 UTC do 01 v 03 UTC
Východojihovýchodní vítr 12 kt
Viditelnost 10 km a více
Žádná oblačnost pod 1500 m, nevyskytují se cumulonimby.

TAF: DAAD 281700Z 2818/0103 12012KT CAVOK

Stav a předpovědi počasí z více než 4 000 letišť (zprávy METAR a TAF).

Červené a žluté tečky na mapě představují dostupné meteorologické stanice.

Když kurzor umístíte na tečku, zobrazí se název stanice.

Pak kliknutím zobrazíte stav a předpověď počasí.

Chcete-li změnit mapu, kliknutím na zelené tlačítko se znaménkem +mapu přiblížíte, kliknutím na zelené tlačítko se znaménkem – mapu oddálíte a kliknutím na zelené šipky přejdete na sousední mapy.


METAR-TAF: